sensor_id;sensor_type;location;lat;lon;timestamp;P1;durP1;ratioP1;P2;durP2;ratioP2
56265;SDS011;42174;50.936;6.858;2023-11-22T00:00:07;4.55;;;3.22;;
56265;SDS011;42174;50.936;6.858;2023-11-22T00:02:52;7.30;;;3.67;;
56265;SDS011;42174;50.936;6.858;2023-11-22T00:05:36;5.32;;;3.35;;
56265;SDS011;42174;50.936;6.858;2023-11-22T00:08:19;6.78;;;4.22;;
56265;SDS011;42174;50.936;6.858;2023-11-22T00:11:03;4.47;;;3.92;;
56265;SDS011;42174;50.936;6.858;2023-11-22T00:13:49;5.13;;;4.22;;
56265;SDS011;42174;50.936;6.858;2023-11-22T00:16:33;8.30;;;4.85;;
56265;SDS011;42174;50.936;6.858;2023-11-22T00:19:17;4.45;;;3.08;;
56265;SDS011;42174;50.936;6.858;2023-11-22T00:24:57;8.82;;;3.65;;
56265;SDS011;42174;50.936;6.858;2023-11-22T00:27:40;6.70;;;3.55;;
56265;SDS011;42174;50.936;6.858;2023-11-22T00:30:25;6.93;;;4.05;;
56265;SDS011;42174;50.936;6.858;2023-11-22T00:33:09;6.18;;;2.75;;
56265;SDS011;42174;50.936;6.858;2023-11-22T00:35:53;7.88;;;4.30;;
56265;SDS011;42174;50.936;6.858;2023-11-22T00:38:40;5.10;;;3.75;;
56265;SDS011;42174;50.936;6.858;2023-11-22T00:41:24;6.72;;;3.38;;
56265;SDS011;42174;50.936;6.858;2023-11-22T00:44:13;5.93;;;3.45;;
56265;SDS011;42174;50.936;6.858;2023-11-22T00:46:57;6.00;;;3.55;;
56265;SDS011;42174;50.936;6.858;2023-11-22T00:49:41;3.80;;;2.80;;
56265;SDS011;42174;50.936;6.858;2023-11-22T00:52:25;4.78;;;4.32;;
56265;SDS011;42174;50.936;6.858;2023-11-22T00:55:09;6.93;;;3.97;;
56265;SDS011;42174;50.936;6.858;2023-11-22T00:57:53;8.55;;;3.85;;
56265;SDS011;42174;50.936;6.858;2023-11-22T01:00:37;6.40;;;3.33;;
56265;SDS011;42174;50.936;6.858;2023-11-22T01:03:21;4.20;;;3.40;;
56265;SDS011;42174;50.936;6.858;2023-11-22T01:06:05;4.95;;;3.25;;
56265;SDS011;42174;50.936;6.858;2023-11-22T01:08:50;7.00;;;3.92;;
56265;SDS011;42174;50.936;6.858;2023-11-22T01:11:34;7.50;;;4.05;;
56265;SDS011;42174;50.936;6.858;2023-11-22T01:14:18;6.53;;;3.25;;
56265;SDS011;42174;50.936;6.858;2023-11-22T01:17:02;6.80;;;4.57;;
56265;SDS011;42174;50.936;6.858;2023-11-22T01:19:46;3.97;;;2.80;;
56265;SDS011;42174;50.936;6.858;2023-11-22T01:22:30;7.00;;;4.82;;
56265;SDS011;42174;50.936;6.858;2023-11-22T01:25:14;4.25;;;3.28;;
56265;SDS011;42174;50.936;6.858;2023-11-22T01:27:58;6.95;;;3.85;;
56265;SDS011;42174;50.936;6.858;2023-11-22T01:30:42;6.25;;;3.97;;
56265;SDS011;42174;50.936;6.858;2023-11-22T01:33:29;8.43;;;3.33;;
56265;SDS011;42174;50.936;6.858;2023-11-22T01:36:13;8.18;;;4.03;;
56265;SDS011;42174;50.936;6.858;2023-11-22T01:38:58;5.43;;;3.08;;
56265;SDS011;42174;50.936;6.858;2023-11-22T01:41:45;5.75;;;3.17;;
56265;SDS011;42174;50.936;6.858;2023-11-22T01:44:29;5.77;;;4.73;;
56265;SDS011;42174;50.936;6.858;2023-11-22T01:47:13;6.40;;;3.65;;
56265;SDS011;42174;50.936;6.858;2023-11-22T01:49:57;5.07;;;3.05;;
56265;SDS011;42174;50.936;6.858;2023-11-22T01:52:41;4.20;;;2.83;;
56265;SDS011;42174;50.936;6.858;2023-11-22T01:55:26;6.90;;;3.25;;
56265;SDS011;42174;50.936;6.858;2023-11-22T01:58:10;2.65;;;2.45;;
56265;SDS011;42174;50.936;6.858;2023-11-22T02:00:54;8.05;;;3.22;;
56265;SDS011;42174;50.936;6.858;2023-11-22T02:03:38;6.38;;;3.70;;
56265;SDS011;42174;50.936;6.858;2023-11-22T02:06:22;6.43;;;3.47;;
56265;SDS011;42174;50.936;6.858;2023-11-22T02:09:06;5.75;;;2.72;;
56265;SDS011;42174;50.936;6.858;2023-11-22T02:11:57;8.73;;;4.40;;
56265;SDS011;42174;50.936;6.858;2023-11-22T02:14:41;3.58;;;2.45;;
56265;SDS011;42174;50.936;6.858;2023-11-22T02:17:25;5.28;;;3.63;;
56265;SDS011;42174;50.936;6.858;2023-11-22T02:20:10;4.93;;;4.25;;
56265;SDS011;42174;50.936;6.858;2023-11-22T02:22:54;6.07;;;2.83;;
56265;SDS011;42174;50.936;6.858;2023-11-22T02:25:39;6.82;;;4.25;;
56265;SDS011;42174;50.936;6.858;2023-11-22T02:28:23;4.43;;;4.03;;
56265;SDS011;42174;50.936;6.858;2023-11-22T02:31:07;4.22;;;3.30;;
56265;SDS011;42174;50.936;6.858;2023-11-22T02:33:52;3.75;;;3.15;;
56265;SDS011;42174;50.936;6.858;2023-11-22T02:36:36;6.15;;;3.13;;
56265;SDS011;42174;50.936;6.858;2023-11-22T02:39:20;6.78;;;2.53;;
56265;SDS011;42174;50.936;6.858;2023-11-22T02:42:04;7.07;;;3.67;;
56265;SDS011;42174;50.936;6.858;2023-11-22T02:44:48;7.35;;;4.55;;
56265;SDS011;42174;50.936;6.858;2023-11-22T02:47:32;4.75;;;3.47;;
56265;SDS011;42174;50.936;6.858;2023-11-22T02:50:17;5.13;;;2.80;;
56265;SDS011;42174;50.936;6.858;2023-11-22T02:53:01;8.65;;;4.45;;
56265;SDS011;42174;50.936;6.858;2023-11-22T02:55:45;5.60;;;2.67;;
56265;SDS011;42174;50.936;6.858;2023-11-22T02:58:29;6.38;;;4.43;;
56265;SDS011;42174;50.936;6.858;2023-11-22T03:01:13;3.90;;;2.92;;
56265;SDS011;42174;50.936;6.858;2023-11-22T03:03:57;7.70;;;3.88;;
56265;SDS011;42174;50.936;6.858;2023-11-22T03:06:42;2.95;;;2.28;;
56265;SDS011;42174;50.936;6.858;2023-11-22T03:09:26;6.18;;;3.53;;
56265;SDS011;42174;50.936;6.858;2023-11-22T03:12:10;7.80;;;2.88;;
56265;SDS011;42174;50.936;6.858;2023-11-22T03:14:56;4.75;;;2.70;;
56265;SDS011;42174;50.936;6.858;2023-11-22T03:17:44;5.97;;;3.20;;
56265;SDS011;42174;50.936;6.858;2023-11-22T03:20:27;5.00;;;3.95;;
56265;SDS011;42174;50.936;6.858;2023-11-22T03:23:11;4.68;;;3.42;;
56265;SDS011;42174;50.936;6.858;2023-11-22T03:25:55;3.45;;;2.72;;
56265;SDS011;42174;50.936;6.858;2023-11-22T03:28:39;7.72;;;3.25;;
56265;SDS011;42174;50.936;6.858;2023-11-22T03:31:23;4.72;;;4.13;;
56265;SDS011;42174;50.936;6.858;2023-11-22T03:34:07;7.60;;;3.42;;
56265;SDS011;42174;50.936;6.858;2023-11-22T03:36:51;6.20;;;2.65;;
56265;SDS011;42174;50.936;6.858;2023-11-22T03:39:35;7.55;;;3.95;;
56265;SDS011;42174;50.936;6.858;2023-11-22T03:42:19;3.65;;;2.63;;
56265;SDS011;42174;50.936;6.858;2023-11-22T03:45:04;7.50;;;5.43;;
56265;SDS011;42174;50.936;6.858;2023-11-22T03:47:48;5.07;;;3.03;;
56265;SDS011;42174;50.936;6.858;2023-11-22T03:50:32;8.60;;;4.30;;
56265;SDS011;42174;50.936;6.858;2023-11-22T03:53:15;6.45;;;3.50;;
56265;SDS011;42174;50.936;6.858;2023-11-22T03:56:00;5.57;;;3.30;;
56265;SDS011;42174;50.936;6.858;2023-11-22T03:58:44;5.50;;;3.28;;
56265;SDS011;42174;50.936;6.858;2023-11-22T04:01:28;6.65;;;4.75;;
56265;SDS011;42174;50.936;6.858;2023-11-22T04:04:12;5.72;;;3.80;;
56265;SDS011;42174;50.936;6.858;2023-11-22T04:06:55;6.13;;;3.70;;
56265;SDS011;42174;50.936;6.858;2023-11-22T04:09:39;5.30;;;2.97;;
56265;SDS011;42174;50.936;6.858;2023-11-22T04:12:23;8.07;;;3.65;;
56265;SDS011;42174;50.936;6.858;2023-11-22T04:15:08;6.43;;;2.92;;
56265;SDS011;42174;50.936;6.858;2023-11-22T04:17:53;6.43;;;4.05;;
56265;SDS011;42174;50.936;6.858;2023-11-22T04:20:40;6.45;;;4.63;;
56265;SDS011;42174;50.936;6.858;2023-11-22T04:23:24;7.95;;;3.80;;
56265;SDS011;42174;50.936;6.858;2023-11-22T04:26:08;5.95;;;2.90;;
56265;SDS011;42174;50.936;6.858;2023-11-22T04:28:52;7.53;;;3.42;;
56265;SDS011;42174;50.936;6.858;2023-11-22T04:31:36;4.88;;;2.83;;
56265;SDS011;42174;50.936;6.858;2023-11-22T04:34:21;9.80;;;4.40;;
56265;SDS011;42174;50.936;6.858;2023-11-22T04:37:05;4.05;;;2.67;;
56265;SDS011;42174;50.936;6.858;2023-11-22T04:39:49;6.50;;;4.20;;
56265;SDS011;42174;50.936;6.858;2023-11-22T04:42:35;7.65;;;4.30;;
56265;SDS011;42174;50.936;6.858;2023-11-22T04:45:20;11.85;;;6.05;;
56265;SDS011;42174;50.936;6.858;2023-11-22T04:48:04;8.63;;;3.45;;
56265;SDS011;42174;50.936;6.858;2023-11-22T04:50:48;9.30;;;4.93;;
56265;SDS011;42174;50.936;6.858;2023-11-22T04:53:32;8.00;;;4.63;;
56265;SDS011;42174;50.936;6.858;2023-11-22T04:56:16;8.00;;;3.90;;
56265;SDS011;42174;50.936;6.858;2023-11-22T04:59:00;6.93;;;4.03;;
56265;SDS011;42174;50.936;6.858;2023-11-22T05:01:44;9.60;;;3.72;;
56265;SDS011;42174;50.936;6.858;2023-11-22T05:04:28;5.55;;;2.90;;
56265;SDS011;42174;50.936;6.858;2023-11-22T05:07:12;5.80;;;3.28;;
56265;SDS011;42174;50.936;6.858;2023-11-22T05:09:56;6.50;;;4.05;;
56265;SDS011;42174;50.936;6.858;2023-11-22T05:12:40;5.93;;;4.18;;
56265;SDS011;42174;50.936;6.858;2023-11-22T05:15:24;7.63;;;4.30;;
56265;SDS011;42174;50.936;6.858;2023-11-22T05:18:08;5.35;;;4.25;;
56265;SDS011;42174;50.936;6.858;2023-11-22T05:20:52;5.60;;;4.40;;
56265;SDS011;42174;50.936;6.858;2023-11-22T05:23:36;7.32;;;4.72;;
56265;SDS011;42174;50.936;6.858;2023-11-22T05:26:21;6.35;;;3.90;;
56265;SDS011;42174;50.936;6.858;2023-11-22T05:29:05;7.13;;;4.53;;
56265;SDS011;42174;50.936;6.858;2023-11-22T05:31:49;7.03;;;3.42;;
56265;SDS011;42174;50.936;6.858;2023-11-22T05:34:33;8.75;;;2.92;;
56265;SDS011;42174;50.936;6.858;2023-11-22T05:37:17;8.82;;;4.72;;
56265;SDS011;42174;50.936;6.858;2023-11-22T05:40:01;11.80;;;5.03;;
56265;SDS011;42174;50.936;6.858;2023-11-22T05:42:44;5.40;;;3.78;;
56265;SDS011;42174;50.936;6.858;2023-11-22T05:45:30;9.63;;;4.07;;
56265;SDS011;42174;50.936;6.858;2023-11-22T05:48:14;6.20;;;3.30;;
56265;SDS011;42174;50.936;6.858;2023-11-22T05:50:58;7.18;;;4.25;;
56265;SDS011;42174;50.936;6.858;2023-11-22T05:53:42;6.07;;;3.92;;
56265;SDS011;42174;50.936;6.858;2023-11-22T05:56:26;8.43;;;4.18;;
56265;SDS011;42174;50.936;6.858;2023-11-22T05:59:09;5.03;;;2.80;;
56265;SDS011;42174;50.936;6.858;2023-11-22T06:01:53;5.80;;;3.53;;
56265;SDS011;42174;50.936;6.858;2023-11-22T06:04:38;6.57;;;4.35;;
56265;SDS011;42174;50.936;6.858;2023-11-22T06:07:22;9.02;;;4.25;;
56265;SDS011;42174;50.936;6.858;2023-11-22T06:10:06;9.05;;;4.57;;
56265;SDS011;42174;50.936;6.858;2023-11-22T06:12:50;8.23;;;3.60;;
56265;SDS011;42174;50.936;6.858;2023-11-22T06:15:34;5.53;;;2.78;;
56265;SDS011;42174;50.936;6.858;2023-11-22T06:18:18;9.00;;;3.95;;
56265;SDS011;42174;50.936;6.858;2023-11-22T06:21:11;8.15;;;3.50;;
56265;SDS011;42174;50.936;6.858;2023-11-22T06:23:58;5.72;;;4.88;;
56265;SDS011;42174;50.936;6.858;2023-11-22T06:26:43;10.20;;;4.40;;
56265;SDS011;42174;50.936;6.858;2023-11-22T06:29:27;7.10;;;3.60;;
56265;SDS011;42174;50.936;6.858;2023-11-22T06:32:11;8.43;;;4.78;;
56265;SDS011;42174;50.936;6.858;2023-11-22T06:34:55;4.32;;;3.85;;
56265;SDS011;42174;50.936;6.858;2023-11-22T06:37:39;8.60;;;3.55;;
56265;SDS011;42174;50.936;6.858;2023-11-22T06:40:23;9.63;;;5.18;;
56265;SDS011;42174;50.936;6.858;2023-11-22T06:43:07;8.07;;;4.45;;
56265;SDS011;42174;50.936;6.858;2023-11-22T06:45:51;5.53;;;2.67;;
56265;SDS011;42174;50.936;6.858;2023-11-22T06:48:35;7.78;;;3.30;;
56265;SDS011;42174;50.936;6.858;2023-11-22T06:51:19;6.80;;;4.40;;
56265;SDS011;42174;50.936;6.858;2023-11-22T06:54:03;6.70;;;5.47;;
56265;SDS011;42174;50.936;6.858;2023-11-22T06:56:47;6.10;;;4.18;;
56265;SDS011;42174;50.936;6.858;2023-11-22T06:59:31;6.93;;;3.70;;
56265;SDS011;42174;50.936;6.858;2023-11-22T07:02:15;7.63;;;3.65;;
56265;SDS011;42174;50.936;6.858;2023-11-22T07:04:58;9.32;;;4.45;;
56265;SDS011;42174;50.936;6.858;2023-11-22T07:07:42;7.68;;;4.47;;
56265;SDS011;42174;50.936;6.858;2023-11-22T07:10:26;7.55;;;2.55;;
56265;SDS011;42174;50.936;6.858;2023-11-22T07:13:11;5.25;;;4.47;;
56265;SDS011;42174;50.936;6.858;2023-11-22T07:15:56;7.88;;;3.42;;
56265;SDS011;42174;50.936;6.858;2023-11-22T07:18:40;11.15;;;3.30;;
56265;SDS011;42174;50.936;6.858;2023-11-22T07:21:24;5.78;;;3.70;;
56265;SDS011;42174;50.936;6.858;2023-11-22T07:24:08;6.75;;;3.17;;
56265;SDS011;42174;50.936;6.858;2023-11-22T07:26:52;11.73;;;4.32;;
56265;SDS011;42174;50.936;6.858;2023-11-22T07:29:37;7.28;;;3.33;;
56265;SDS011;42174;50.936;6.858;2023-11-22T07:32:21;6.78;;;4.55;;
56265;SDS011;42174;50.936;6.858;2023-11-22T07:35:05;10.20;;;4.20;;
56265;SDS011;42174;50.936;6.858;2023-11-22T07:37:49;8.95;;;5.15;;
56265;SDS011;42174;50.936;6.858;2023-11-22T07:40:35;6.25;;;4.00;;
56265;SDS011;42174;50.936;6.858;2023-11-22T07:43:19;7.68;;;4.60;;
56265;SDS011;42174;50.936;6.858;2023-11-22T07:46:06;11.20;;;4.80;;
56265;SDS011;42174;50.936;6.858;2023-11-22T07:48:56;3.38;;;2.58;;
56265;SDS011;42174;50.936;6.858;2023-11-22T07:51:40;9.07;;;3.63;;
56265;SDS011;42174;50.936;6.858;2023-11-22T07:54:24;8.55;;;5.30;;
56265;SDS011;42174;50.936;6.858;2023-11-22T07:57:08;8.55;;;4.78;;
56265;SDS011;42174;50.936;6.858;2023-11-22T07:59:52;8.85;;;5.95;;
56265;SDS011;42174;50.936;6.858;2023-11-22T08:02:39;9.10;;;3.17;;
56265;SDS011;42174;50.936;6.858;2023-11-22T08:05:23;7.45;;;4.70;;
56265;SDS011;42174;50.936;6.858;2023-11-22T08:08:08;7.15;;;4.45;;
56265;SDS011;42174;50.936;6.858;2023-11-22T08:10:52;8.38;;;4.20;;
56265;SDS011;42174;50.936;6.858;2023-11-22T08:13:37;6.22;;;3.08;;
56265;SDS011;42174;50.936;6.858;2023-11-22T08:16:21;8.27;;;2.95;;
56265;SDS011;42174;50.936;6.858;2023-11-22T08:19:05;7.10;;;3.00;;
56265;SDS011;42174;50.936;6.858;2023-11-22T08:21:49;7.45;;;3.95;;
56265;SDS011;42174;50.936;6.858;2023-11-22T08:24:33;7.80;;;3.42;;
56265;SDS011;42174;50.936;6.858;2023-11-22T08:27:17;7.65;;;4.43;;
56265;SDS011;42174;50.936;6.858;2023-11-22T08:30:01;5.07;;;3.45;;
56265;SDS011;42174;50.936;6.858;2023-11-22T08:32:48;6.53;;;3.93;;
56265;SDS011;42174;50.936;6.858;2023-11-22T08:35:37;10.00;;;5.30;;
56265;SDS011;42174;50.936;6.858;2023-11-22T08:38:21;4.85;;;2.90;;
56265;SDS011;42174;50.936;6.858;2023-11-22T08:41:05;8.50;;;5.13;;
56265;SDS011;42174;50.936;6.858;2023-11-22T08:43:55;5.65;;;3.35;;
56265;SDS011;42174;50.936;6.858;2023-11-22T08:46:39;4.72;;;3.20;;
56265;SDS011;42174;50.936;6.858;2023-11-22T08:49:23;3.08;;;2.65;;
56265;SDS011;42174;50.936;6.858;2023-11-22T08:52:07;9.85;;;3.40;;
56265;SDS011;42174;50.936;6.858;2023-11-22T08:54:51;5.32;;;3.00;;
56265;SDS011;42174;50.936;6.858;2023-11-22T08:57:35;5.47;;;4.00;;
56265;SDS011;42174;50.936;6.858;2023-11-22T09:00:20;7.97;;;3.47;;
56265;SDS011;42174;50.936;6.858;2023-11-22T09:03:08;5.93;;;3.85;;
56265;SDS011;42174;50.936;6.858;2023-11-22T09:05:52;7.45;;;3.85;;
56265;SDS011;42174;50.936;6.858;2023-11-22T09:08:37;8.48;;;4.63;;
56265;SDS011;42174;50.936;6.858;2023-11-22T09:11:21;5.95;;;4.00;;
56265;SDS011;42174;50.936;6.858;2023-11-22T09:14:06;7.15;;;4.22;;
56265;SDS011;42174;50.936;6.858;2023-11-22T09:16:50;7.47;;;4.40;;
56265;SDS011;42174;50.936;6.858;2023-11-22T09:22:21;3.05;;;2.78;;
56265;SDS011;42174;50.936;6.858;2023-11-22T09:25:06;8.98;;;3.90;;
56265;SDS011;42174;50.936;6.858;2023-11-22T09:27:55;7.30;;;3.90;;
56265;SDS011;42174;50.936;6.858;2023-11-22T09:30:39;5.18;;;3.65;;
56265;SDS011;42174;50.936;6.858;2023-11-22T09:33:26;6.25;;;2.58;;
56265;SDS011;42174;50.936;6.858;2023-11-22T09:36:10;5.13;;;3.13;;
56265;SDS011;42174;50.936;6.858;2023-11-22T09:38:54;9.35;;;3.75;;
56265;SDS011;42174;50.936;6.858;2023-11-22T09:41:39;9.95;;;2.97;;
56265;SDS011;42174;50.936;6.858;2023-11-22T09:44:23;6.75;;;3.13;;
56265;SDS011;42174;50.936;6.858;2023-11-22T09:47:07;2.80;;;2.60;;
56265;SDS011;42174;50.936;6.858;2023-11-22T09:49:51;5.97;;;3.45;;
56265;SDS011;42174;50.936;6.858;2023-11-22T09:52:35;3.65;;;1.75;;
56265;SDS011;42174;50.936;6.858;2023-11-22T09:55:21;4.90;;;2.70;;
56265;SDS011;42174;50.936;6.858;2023-11-22T09:58:05;2.58;;;1.80;;
56265;SDS011;42174;50.936;6.858;2023-11-22T10:00:50;4.13;;;2.10;;
56265;SDS011;42174;50.936;6.858;2023-11-22T10:03:34;7.30;;;2.42;;
56265;SDS011;42174;50.936;6.858;2023-11-22T10:06:17;3.63;;;1.67;;
56265;SDS011;42174;50.936;6.858;2023-11-22T10:09:04;1.60;;;1.50;;
56265;SDS011;42174;50.936;6.858;2023-11-22T10:11:52;6.72;;;2.78;;
56265;SDS011;42174;50.936;6.858;2023-11-22T10:14:36;3.60;;;2.10;;
56265;SDS011;42174;50.936;6.858;2023-11-22T10:17:20;7.68;;;2.55;;
56265;SDS011;42174;50.936;6.858;2023-11-22T10:20:04;4.38;;;2.45;;
56265;SDS011;42174;50.936;6.858;2023-11-22T10:22:54;3.53;;;2.20;;
56265;SDS011;42174;50.936;6.858;2023-11-22T10:25:44;4.22;;;1.88;;
56265;SDS011;42174;50.936;6.858;2023-11-22T10:28:28;4.47;;;2.08;;
56265;SDS011;42174;50.936;6.858;2023-11-22T10:31:13;3.08;;;2.70;;
56265;SDS011;42174;50.936;6.858;2023-11-22T10:33:57;3.80;;;2.22;;
56265;SDS011;42174;50.936;6.858;2023-11-22T10:36:41;2.15;;;1.75;;
56265;SDS011;42174;50.936;6.858;2023-11-22T10:39:25;3.15;;;2.05;;
56265;SDS011;42174;50.936;6.858;2023-11-22T10:42:09;3.55;;;1.83;;
56265;SDS011;42174;50.936;6.858;2023-11-22T10:44:56;4.90;;;2.38;;
56265;SDS011;42174;50.936;6.858;2023-11-22T10:47:40;3.70;;;1.67;;
56265;SDS011;42174;50.936;6.858;2023-11-22T10:50:26;6.60;;;2.28;;
56265;SDS011;42174;50.936;6.858;2023-11-22T10:53:11;2.70;;;1.92;;
56265;SDS011;42174;50.936;6.858;2023-11-22T10:55:57;2.45;;;2.25;;
56265;SDS011;42174;50.936;6.858;2023-11-22T10:58:50;1.27;;;1.17;;
56265;SDS011;42174;50.936;6.858;2023-11-22T11:01:34;2.90;;;1.92;;
56265;SDS011;42174;50.936;6.858;2023-11-22T11:04:20;1.25;;;1.15;;
56265;SDS011;42174;50.936;6.858;2023-11-22T11:07:07;2.65;;;2.05;;
56265;SDS011;42174;50.936;6.858;2023-11-22T11:09:51;2.53;;;1.67;;
56265;SDS011;42174;50.936;6.858;2023-11-22T11:12:37;4.28;;;1.77;;
56265;SDS011;42174;50.936;6.858;2023-11-22T11:15:21;2.20;;;1.80;;
56265;SDS011;42174;50.936;6.858;2023-11-22T11:18:09;2.47;;;1.92;;
56265;SDS011;42174;50.936;6.858;2023-11-22T11:20:57;1.42;;;0.88;;
56265;SDS011;42174;50.936;6.858;2023-11-22T11:23:42;2.92;;;1.67;;
56265;SDS011;42174;50.936;6.858;2023-11-22T11:26:27;6.68;;;2.28;;
56265;SDS011;42174;50.936;6.858;2023-11-22T11:29:28;1.70;;;1.33;;
56265;SDS011;42174;50.936;6.858;2023-11-22T11:32:17;4.38;;;2.38;;
56265;SDS011;42174;50.936;6.858;2023-11-22T11:35:13;1.67;;;1.05;;
56265;SDS011;42174;50.936;6.858;2023-11-22T11:38:01;1.95;;;1.25;;
56265;SDS011;42174;50.936;6.858;2023-11-22T11:40:51;3.03;;;1.33;;
56265;SDS011;42174;50.936;6.858;2023-11-22T11:43:46;2.92;;;1.83;;
56265;SDS011;42174;50.936;6.858;2023-11-22T11:46:30;2.40;;;1.45;;
56265;SDS011;42174;50.936;6.858;2023-11-22T11:49:14;3.17;;;1.33;;
56265;SDS011;42174;50.936;6.858;2023-11-22T11:51:59;1.67;;;1.20;;
56265;SDS011;42174;50.936;6.858;2023-11-22T11:54:44;1.27;;;1.17;;
56265;SDS011;42174;50.936;6.858;2023-11-22T11:57:30;2.95;;;1.27;;
56265;SDS011;42174;50.936;6.858;2023-11-22T12:00:14;1.65;;;0.98;;
56265;SDS011;42174;50.936;6.858;2023-11-22T12:02:58;2.35;;;2.05;;
56265;SDS011;42174;50.936;6.858;2023-11-22T12:05:42;4.90;;;1.52;;
56265;SDS011;42174;50.936;6.858;2023-11-22T12:08:26;2.70;;;1.70;;
56265;SDS011;42174;50.936;6.858;2023-11-22T12:11:14;1.52;;;0.77;;
56265;SDS011;42174;50.936;6.858;2023-11-22T12:13:59;1.60;;;1.10;;
56265;SDS011;42174;50.936;6.858;2023-11-22T12:16:43;1.83;;;1.73;;
56265;SDS011;42174;50.936;6.858;2023-11-22T12:19:31;1.75;;;1.58;;
56265;SDS011;42174;50.936;6.858;2023-11-22T12:22:16;1.50;;;1.05;;
56265;SDS011;42174;50.936;6.858;2023-11-22T12:25:00;2.90;;;1.13;;
56265;SDS011;42174;50.936;6.858;2023-11-22T12:27:44;2.10;;;1.90;;
56265;SDS011;42174;50.936;6.858;2023-11-22T12:30:30;1.38;;;1.15;;
56265;SDS011;42174;50.936;6.858;2023-11-22T12:33:15;2.35;;;2.00;;
56265;SDS011;42174;50.936;6.858;2023-11-22T12:36:01;1.45;;;1.00;;
56265;SDS011;42174;50.936;6.858;2023-11-22T12:38:45;1.90;;;1.25;;
56265;SDS011;42174;50.936;6.858;2023-11-22T12:41:30;3.47;;;1.55;;
56265;SDS011;42174;50.936;6.858;2023-11-22T12:44:16;2.13;;;1.50;;
56265;SDS011;42174;50.936;6.858;2023-11-22T12:47:00;1.50;;;1.05;;
56265;SDS011;42174;50.936;6.858;2023-11-22T12:49:54;2.35;;;1.50;;
56265;SDS011;42174;50.936;6.858;2023-11-22T12:52:38;3.17;;;1.85;;
56265;SDS011;42174;50.936;6.858;2023-11-22T12:55:23;1.85;;;1.23;;
56265;SDS011;42174;50.936;6.858;2023-11-22T12:58:07;0.80;;;0.80;;
56265;SDS011;42174;50.936;6.858;2023-11-22T13:00:52;2.58;;;1.40;;
56265;SDS011;42174;50.936;6.858;2023-11-22T13:03:41;1.25;;;1.15;;
56265;SDS011;42174;50.936;6.858;2023-11-22T13:06:26;3.25;;;1.33;;
56265;SDS011;42174;50.936;6.858;2023-11-22T13:09:10;1.85;;;0.95;;
56265;SDS011;42174;50.936;6.858;2023-11-22T13:11:58;1.52;;;1.42;;
56265;SDS011;42174;50.936;6.858;2023-11-22T13:14:42;1.88;;;1.42;;
56265;SDS011;42174;50.936;6.858;2023-11-22T13:17:26;1.00;;;0.93;;
56265;SDS011;42174;50.936;6.858;2023-11-22T13:20:10;2.40;;;1.10;;
56265;SDS011;42174;50.936;6.858;2023-11-22T13:22:57;1.60;;;1.13;;
56265;SDS011;42174;50.936;6.858;2023-11-22T13:25:43;1.20;;;0.60;;
56265;SDS011;42174;50.936;6.858;2023-11-22T13:28:27;5.25;;;1.30;;
56265;SDS011;42174;50.936;6.858;2023-11-22T13:31:11;1.38;;;0.70;;
56265;SDS011;42174;50.936;6.858;2023-11-22T13:33:56;1.77;;;0.88;;
56265;SDS011;42174;50.936;6.858;2023-11-22T13:36:40;2.00;;;1.10;;
56265;SDS011;42174;50.936;6.858;2023-11-22T13:39:24;0.70;;;0.40;;
56265;SDS011;42174;50.936;6.858;2023-11-22T13:42:08;2.53;;;0.77;;
56265;SDS011;42174;50.936;6.858;2023-11-22T13:44:52;0.68;;;0.57;;
56265;SDS011;42174;50.936;6.858;2023-11-22T13:47:36;1.30;;;0.63;;
56265;SDS011;42174;50.936;6.858;2023-11-22T13:50:20;0.95;;;0.93;;
56265;SDS011;42174;50.936;6.858;2023-11-22T13:53:10;2.58;;;1.50;;
56265;SDS011;42174;50.936;6.858;2023-11-22T13:55:54;1.08;;;0.63;;
56265;SDS011;42174;50.936;6.858;2023-11-22T13:58:39;2.05;;;1.73;;
56265;SDS011;42174;50.936;6.858;2023-11-22T14:01:23;3.20;;;1.42;;
56265;SDS011;42174;50.936;6.858;2023-11-22T14:04:07;3.53;;;2.63;;
56265;SDS011;42174;50.936;6.858;2023-11-22T14:06:51;3.97;;;2.40;;
56265;SDS011;42174;50.936;6.858;2023-11-22T14:09:35;2.13;;;1.85;;
56265;SDS011;42174;50.936;6.858;2023-11-22T14:12:20;2.58;;;1.52;;
56265;SDS011;42174;50.936;6.858;2023-11-22T14:15:04;1.90;;;1.25;;
56265;SDS011;42174;50.936;6.858;2023-11-22T14:17:48;2.85;;;1.80;;
56265;SDS011;42174;50.936;6.858;2023-11-22T14:20:35;4.75;;;1.75;;
56265;SDS011;42174;50.936;6.858;2023-11-22T14:23:19;2.03;;;1.48;;
56265;SDS011;42174;50.936;6.858;2023-11-22T14:26:03;2.33;;;1.10;;
56265;SDS011;42174;50.936;6.858;2023-11-22T14:28:47;6.05;;;2.58;;
56265;SDS011;42174;50.936;6.858;2023-11-22T14:31:30;3.75;;;1.98;;
56265;SDS011;42174;50.936;6.858;2023-11-22T14:34:14;3.88;;;2.55;;
56265;SDS011;42174;50.936;6.858;2023-11-22T14:36:59;5.97;;;2.75;;
56265;SDS011;42174;50.936;6.858;2023-11-22T14:39:43;2.22;;;1.80;;
56265;SDS011;42174;50.936;6.858;2023-11-22T14:42:28;4.05;;;1.67;;
56265;SDS011;42174;50.936;6.858;2023-11-22T14:45:12;3.90;;;1.90;;
56265;SDS011;42174;50.936;6.858;2023-11-22T14:47:56;3.50;;;2.05;;
56265;SDS011;42174;50.936;6.858;2023-11-22T14:50:40;6.30;;;3.95;;
56265;SDS011;42174;50.936;6.858;2023-11-22T14:53:25;5.03;;;2.83;;
56265;SDS011;42174;50.936;6.858;2023-11-22T14:56:09;2.92;;;1.98;;
56265;SDS011;42174;50.936;6.858;2023-11-22T14:58:53;3.03;;;1.83;;
56265;SDS011;42174;50.936;6.858;2023-11-22T15:01:40;4.82;;;3.13;;
56265;SDS011;42174;50.936;6.858;2023-11-22T15:04:25;4.75;;;2.55;;
56265;SDS011;42174;50.936;6.858;2023-11-22T15:07:09;2.70;;;1.95;;
56265;SDS011;42174;50.936;6.858;2023-11-22T15:09:55;4.50;;;2.65;;
56265;SDS011;42174;50.936;6.858;2023-11-22T15:12:39;5.70;;;2.38;;
56265;SDS011;42174;50.936;6.858;2023-11-22T15:15:26;6.20;;;3.65;;
56265;SDS011;42174;50.936;6.858;2023-11-22T15:18:10;5.50;;;2.53;;
56265;SDS011;42174;50.936;6.858;2023-11-22T15:20:54;1.67;;;1.42;;
56265;SDS011;42174;50.936;6.858;2023-11-22T15:23:38;4.82;;;3.15;;
56265;SDS011;42174;50.936;6.858;2023-11-22T15:26:22;2.65;;;2.45;;
56265;SDS011;42174;50.936;6.858;2023-11-22T15:29:05;2.03;;;1.35;;
56265;SDS011;42174;50.936;6.858;2023-11-22T15:31:50;3.60;;;1.92;;
56265;SDS011;42174;50.936;6.858;2023-11-22T15:34:35;2.53;;;2.17;;
56265;SDS011;42174;50.936;6.858;2023-11-22T15:37:21;2.35;;;2.00;;
56265;SDS011;42174;50.936;6.858;2023-11-22T15:40:05;2.63;;;1.83;;
56265;SDS011;42174;50.936;6.858;2023-11-22T15:42:51;3.40;;;2.50;;
56265;SDS011;42174;50.936;6.858;2023-11-22T15:45:35;3.30;;;1.88;;
56265;SDS011;42174;50.936;6.858;2023-11-22T15:48:21;2.50;;;2.03;;
56265;SDS011;42174;50.936;6.858;2023-11-22T15:51:05;5.47;;;2.45;;
56265;SDS011;42174;50.936;6.858;2023-11-22T15:53:52;2.43;;;2.03;;
56265;SDS011;42174;50.936;6.858;2023-11-22T15:56:36;5.07;;;1.60;;
56265;SDS011;42174;50.936;6.858;2023-11-22T15:59:20;3.90;;;2.70;;
56265;SDS011;42174;50.936;6.858;2023-11-22T16:02:04;4.75;;;3.28;;
56265;SDS011;42174;50.936;6.858;2023-11-22T16:04:47;5.18;;;1.92;;
56265;SDS011;42174;50.936;6.858;2023-11-22T16:07:32;2.00;;;1.52;;
56265;SDS011;42174;50.936;6.858;2023-11-22T16:10:17;2.42;;;1.90;;
56265;SDS011;42174;50.936;6.858;2023-11-22T16:13:01;1.98;;;1.52;;
56265;SDS011;42174;50.936;6.858;2023-11-22T16:15:45;2.45;;;2.17;;
56265;SDS011;42174;50.936;6.858;2023-11-22T16:18:30;1.80;;;1.67;;
56265;SDS011;42174;50.936;6.858;2023-11-22T16:21:14;3.58;;;1.73;;
56265;SDS011;42174;50.936;6.858;2023-11-22T16:23:58;2.83;;;1.92;;
56265;SDS011;42174;50.936;6.858;2023-11-22T16:26:41;4.80;;;2.38;;
56265;SDS011;42174;50.936;6.858;2023-11-22T16:29:25;2.45;;;1.77;;
56265;SDS011;42174;50.936;6.858;2023-11-22T16:32:10;5.32;;;2.97;;
56265;SDS011;42174;50.936;6.858;2023-11-22T16:34:54;2.35;;;2.10;;
56265;SDS011;42174;50.936;6.858;2023-11-22T16:37:38;4.85;;;2.97;;